Terminal Aerodrome Forecast
Issued by NWS Grand Forks, ND

Home | Current Version | Previous Version | Text Only | Print | Product List | Glossary On
Versions: 1 2 3 4 5 6 7 8 9 10 11 12 13 14 15 16 17 18 19 20 21 22
170
FTUS43 KFGF 222320
TAFGFK
TAF
KGFK 222320Z 2300/2324 18019G27KT P6SM BKN050
     FM230300 17013KT P6SM VCTS BKN040CB
     FM230500 17009KT 2SM TSRA BKN025CB
     FM230700 18008KT P6SM -SHRA BKN040
     FM231100 21007KT P6SM OVC040
     FM231700 27008KT P6SM SCT250=

USA.gov is the U.S. government's official web portal to all federal, state and local government web resources and services.